Spring Gap, Maryland
Current Conditions -  °F | °C
As of 7:48 AM on Wednesday 26 Nov 2014 (Local Time) from KCBE Reporting Station
Overcast Overcast  
Wind Chill: 32°   Ceiling: 300
Heat Index: 32°   Visibility: 0.5mi
Dew Point: 32°   Wind: 0mph
Humidity: 100%   Direction: NA
Pressure: 30.11"   Gusts: NA
Location:  39.56°N, 78.72°W
Report Text: KCBE 261248Z AUTO 00000KT 1/2SM OVC003 00/00 A3011 RMK AO1
Loading
Personal Weather Stations






























Interactive Weather Map New forecast layout! Learn more

10-Day Weather Forecast

Advertisements
Track Severe Weather on mobile